createdAt,value
2022-08-16T00:02:30.670Z,99948.75
2022-08-16T00:04:59.689Z,99956.66
2022-08-16T00:07:29.323Z,99960.09
2022-08-16T00:10:00.138Z,99955.63
2022-08-16T00:12:29.764Z,99956.41
2022-08-16T00:14:59.302Z,99955.38
2022-08-16T00:17:26.806Z,99953.69
2022-08-16T00:19:56.245Z,99955.38
2022-08-16T00:22:27.770Z,99957.97
2022-08-16T00:24:54.988Z,99954.09
2022-08-16T00:27:23.036Z,99955.38
2022-08-16T00:30:08.335Z,99950.19
2022-08-16T00:32:38.386Z,99949.41
2022-08-16T00:35:15.337Z,99948.63
2022-08-16T00:37:58.363Z,99943.41
2022-08-16T00:40:43.953Z,99952.03
2022-08-16T00:43:40.713Z,99959.16
2022-08-16T00:46:32.943Z,99959.09
2022-08-16T00:49:05.774Z,99961.09
2022-08-16T00:51:32.961Z,99960.38
2022-08-16T00:54:00.769Z,99963.94
2022-08-16T00:56:58.342Z,99969.13
2022-08-16T00:59:21.896Z,99959.66
2022-08-16T01:01:51.424Z,99955.75
2022-08-16T01:04:29.513Z,99965.94
2022-08-16T01:07:01.806Z,99971.28
2022-08-16T01:09:37.321Z,99968.59
2022-08-16T01:12:08.492Z,99967.94
2022-08-16T01:14:41.525Z,99975.75
2022-08-16T01:17:12.659Z,99971.63
2022-08-16T01:19:44.407Z,99969.03
2022-08-16T01:22:47.814Z,99974.19
2022-08-16T01:25:33.984Z,99971.91
2022-08-16T01:28:07.406Z,99973.75
2022-08-16T01:30:49.535Z,99969.31
2022-08-16T01:33:19.238Z,99974.88
2022-08-16T01:35:52.634Z,99972.16
2022-08-16T01:38:57.449Z,99981.97
2022-08-16T01:41:30.021Z,99976.94
2022-08-16T01:43:57.184Z,99977.06
2022-08-16T01:46:42.674Z,99980.69
2022-08-16T01:49:43.287Z,99982.31
2022-08-16T01:52:29.231Z,99982.72
2022-08-16T01:54:57.652Z,99983.75
2022-08-16T01:57:24.829Z,99979.53
2022-08-16T01:59:54.752Z,99982.31
2022-08-16T02:02:27.094Z,99980.72
2022-08-16T02:04:57.417Z,99980.97
2022-08-16T02:07:24.535Z,99980.38
2022-08-16T02:09:56.978Z,99981.50
2022-08-16T02:12:50.817Z,99981.63
2022-08-16T02:15:17.287Z,99985.19
2022-08-16T02:17:52.666Z,99987.28
2022-08-16T02:20:26.122Z,99994.38
2022-08-16T02:22:55.228Z,99993.66
2022-08-16T02:25:23.538Z,99991.22
2022-08-16T02:27:51.510Z,99980.81
2022-08-16T02:30:37.058Z,99989.50
2022-08-16T02:33:11.544Z,99985.41
2022-08-16T02:35:53.736Z,99982.09
2022-08-16T02:38:22.693Z,99986.69
2022-08-16T02:40:49.569Z,99993.09
2022-08-16T02:43:16.519Z,99988.97
2022-08-16T02:45:43.677Z,99985.53
2022-08-16T02:48:28.021Z,99994.50
2022-08-16T02:51:06.415Z,99995.53
2022-08-16T02:53:43.282Z,99994.72
2022-08-16T02:56:14.996Z,99989.34
2022-08-16T02:58:44.147Z,99995.88
2022-08-16T03:01:24.653Z,99994.38
2022-08-16T03:04:41.160Z,99990.63
2022-08-16T03:06:47.557Z,99999.84
2022-08-16T03:09:16.316Z,99996.31
2022-08-16T03:11:44.886Z,100002.63
2022-08-16T03:14:12.780Z,100004.38
2022-08-16T03:16:42.346Z,100005.16
2022-08-16T03:19:48.391Z,100001.53
2022-08-16T03:22:18.858Z,100004.69
2022-08-16T03:24:57.363Z,100006.16
2022-08-16T03:27:25.450Z,100004.44
2022-08-16T03:29:59.267Z,100005.56
2022-08-16T03:32:26.781Z,99996.78
2022-08-16T03:34:54.113Z,100009.09
2022-08-16T03:37:21.240Z,100006.47
2022-08-16T03:39:48.147Z,100003.72
2022-08-16T03:42:23.330Z,100002.72
2022-08-16T03:44:50.439Z,100007.16
2022-08-16T03:47:19.750Z,100010.69
2022-08-16T03:49:52.362Z,100013.38
2022-08-16T03:52:23.567Z,100011.69
2022-08-16T03:54:53.232Z,100010.69
2022-08-16T03:57:32.087Z,100010.69
2022-08-16T04:00:20.496Z,100009.66
2022-08-16T04:03:07.349Z,100007.75
2022-08-16T04:05:37.845Z,100013.88
2022-08-16T04:08:15.141Z,100004.31
2022-08-16T04:10:52.813Z,100006.88
2022-08-16T04:13:59.127Z,100006.88
2022-08-16T04:16:08.052Z,100001.50
2022-08-16T04:18:38.740Z,100000.44
2022-08-16T04:21:06.186Z,99997.69
2022-08-16T04:23:33.179Z,100001.13
2022-08-16T04:26:01.841Z,100015.06
2022-08-16T04:28:54.531Z,100013.22
2022-08-16T04:31:16.704Z,100009.56
2022-08-16T04:33:50.906Z,100014.56
2022-08-16T04:36:20.250Z,100014.47
2022-08-16T04:38:50.142Z,100012.59
2022-08-16T04:41:19.394Z,100012.50
2022-08-16T04:43:59.960Z,100010.66
2022-08-16T04:47:00.789Z,100015.63
2022-08-16T04:49:13.833Z,100010.19
2022-08-16T04:51:43.997Z,100008.03
2022-08-16T04:54:20.847Z,100007.78
2022-08-16T04:56:48.716Z,100011.00
2022-08-16T04:59:15.691Z,100009.06
2022-08-16T05:01:58.304Z,100016.75
2022-08-16T05:04:25.869Z,100016.44
2022-08-16T05:06:58.028Z,100017.09
2022-08-16T05:09:24.910Z,100012.56
2022-08-16T05:11:51.866Z,100017.63
2022-08-16T05:14:20.320Z,100006.78
2022-08-16T05:17:05.581Z,100001.44
2022-08-16T05:19:35.935Z,99998.75
2022-08-16T05:22:03.854Z,100003.03
2022-08-16T05:24:31.472Z,100003.75
2022-08-16T05:26:58.411Z,100010.44
2022-08-16T05:29:57.417Z,100013.72
2022-08-16T05:32:32.776Z,100010.66
2022-08-16T05:34:59.217Z,100009.50
2022-08-16T05:37:26.784Z,100008.19
2022-08-16T05:40:06.928Z,100005.22
2022-08-16T05:42:35.764Z,100004.91
2022-08-16T05:45:22.090Z,100007.25
2022-08-16T05:47:59.523Z,100006.97
2022-08-16T05:50:28.327Z,100011.03
2022-08-16T05:53:01.659Z,100004.66
2022-08-16T05:55:28.596Z,100006.16
2022-08-16T05:57:57.212Z,100001.56
2022-08-16T06:00:25.307Z,99999.56
2022-08-16T06:02:52.539Z,100006.25
2022-08-16T06:05:19.831Z,99996.31
2022-08-16T06:07:58.373Z,99998.66
2022-08-16T06:10:33.175Z,100003.59
2022-08-16T06:13:00.306Z,99999.78
2022-08-16T06:15:27.571Z,99994.16
2022-08-16T06:17:59.053Z,99993.09
2022-08-16T06:20:35.168Z,100002.41
2022-08-16T06:23:16.845Z,99994.94
2022-08-16T06:25:44.280Z,99992.91
2022-08-16T06:28:35.791Z,99995.25
2022-08-16T06:31:05.829Z,99997.41
2022-08-16T06:33:41.997Z,99991.00
2022-08-16T06:36:10.608Z,99983.69
2022-08-16T06:38:38.758Z,99975.66
2022-08-16T06:41:23.316Z,99971.88
2022-08-16T06:43:54.118Z,99967.25
2022-08-16T06:46:31.936Z,99968.72
2022-08-16T06:49:00.697Z,99974.63
2022-08-16T06:51:45.680Z,99976.00
2022-08-16T06:54:14.901Z,99974.63
2022-08-16T06:56:42.635Z,99957.28
2022-08-16T06:59:10.634Z,99964.72
2022-08-16T07:01:43.071Z,99951.06
2022-08-16T07:04:13.451Z,99954.09
2022-08-16T07:07:00.964Z,99930.72
2022-08-16T07:09:29.745Z,99922.59
2022-08-16T07:12:03.223Z,99928.50
2022-08-16T07:14:31.246Z,99922.81
2022-08-16T07:16:59.941Z,99923.31
2022-08-16T07:20:03.991Z,99921.16
2022-08-16T07:22:38.767Z,99903.75
2022-08-16T07:25:12.029Z,99896.22
2022-08-16T07:27:40.061Z,99883.88
2022-08-16T07:30:45.647Z,99884.94
2022-08-16T07:33:00.367Z,99895.91
2022-08-16T07:35:27.323Z,99881.06
2022-08-16T07:37:54.423Z,99873.69
2022-08-16T07:40:36.937Z,99871.44
2022-08-16T07:43:08.695Z,99868.25
2022-08-16T07:45:37.102Z,99869.00
2022-08-16T07:48:11.106Z,99854.09
2022-08-16T07:50:57.851Z,99871.56
2022-08-16T07:53:28.932Z,99874.38
2022-08-16T07:55:56.567Z,99848.41
2022-08-16T07:58:34.167Z,99822.97
2022-08-16T08:01:10.585Z,99816.31
2022-08-16T08:03:48.468Z,99802.09
2022-08-16T08:06:20.978Z,99819.34
2022-08-16T08:08:57.482Z,99802.34
2022-08-16T08:11:28.237Z,99831.91
2022-08-16T08:13:57.585Z,99827.75
2022-08-16T08:16:31.468Z,99824.38
2022-08-16T08:19:02.892Z,99811.88
2022-08-16T08:21:58.314Z,99820.94
2022-08-16T08:24:18.103Z,99791.28
2022-08-16T08:26:50.380Z,99765.13
2022-08-16T08:29:22.945Z,99757.47
2022-08-16T08:31:53.218Z,99747.06
2022-08-16T08:34:22.155Z,99728.78
2022-08-16T08:36:54.097Z,99715.78
2022-08-16T08:39:22.568Z,99740.25
2022-08-16T08:41:50.425Z,99737.72
2022-08-16T08:44:29.007Z,99696.03
2022-08-16T08:47:02.012Z,99699.88
2022-08-16T08:49:46.740Z,99706.22
2022-08-16T08:52:35.136Z,99726.13
2022-08-16T08:55:10.318Z,99719.22
2022-08-16T08:57:42.129Z,99722.63
2022-08-16T09:00:13.637Z,99717.13
2022-08-16T09:02:44.401Z,99713.47
2022-08-16T09:05:16.353Z,99729.66
2022-08-16T09:08:01.326Z,99740.69
2022-08-16T09:10:31.593Z,99754.72
2022-08-16T09:13:01.425Z,99755.59
2022-08-16T09:15:33.196Z,99720.91
2022-08-16T09:18:24.518Z,99702.28
2022-08-16T09:20:59.432Z,99673.94
2022-08-16T09:23:29.439Z,99679.09
2022-08-16T09:25:56.437Z,99673.34
2022-08-16T09:29:15.269Z,99662.03
2022-08-16T09:31:10.934Z,99646.28
2022-08-16T09:33:39.362Z,99638.22
2022-08-16T09:36:12.330Z,99652.06
2022-08-16T09:38:59.857Z,99653.31
2022-08-16T09:41:27.051Z,99663.25
2022-08-16T09:43:59.781Z,99630.91
2022-08-16T09:46:44.585Z,99648.75
2022-08-16T09:49:12.799Z,99651.72
2022-08-16T09:51:40.403Z,99652.75
2022-08-16T09:54:09.739Z,99620.78
2022-08-16T09:56:39.490Z,99617.09
2022-08-16T09:59:21.055Z,99597.00
2022-08-16T10:01:51.688Z,99548.66
2022-08-16T10:04:31.699Z,99549.16
2022-08-16T10:07:15.317Z,99548.56
2022-08-16T10:09:53.955Z,99562.97
2022-08-16T10:12:46.032Z,99563.69
2022-08-16T10:15:21.035Z,99562.94
2022-08-16T10:18:00.212Z,99539.94
2022-08-16T10:20:41.068Z,99536.44
2022-08-16T10:23:17.309Z,99504.25
2022-08-16T10:27:16.383Z,99403.97
2022-08-16T10:28:39.852Z,99315.66
2022-08-16T10:31:09.088Z,99229.03
2022-08-16T10:33:41.903Z,99205.91
2022-08-16T10:36:12.212Z,99180.44
2022-08-16T10:38:58.898Z,99216.13
2022-08-16T10:41:25.780Z,99207.38
2022-08-16T10:43:52.726Z,99174.06
2022-08-16T10:46:39.189Z,99163.38
2022-08-16T10:49:06.436Z,99133.16
2022-08-16T10:52:00.787Z,99095.22
2022-08-16T10:54:29.277Z,99067.97
2022-08-16T10:57:03.986Z,99074.13
2022-08-16T10:59:45.985Z,99089.31
2022-08-16T11:03:37.432Z,99103.53
2022-08-16T11:05:12.436Z,99095.22
2022-08-16T11:07:51.609Z,99065.63
2022-08-16T11:19:06.456Z,98953.53
2022-08-16T11:22:39.155Z,98946.94
2022-08-16T11:24:42.628Z,98948.53
2022-08-16T11:27:23.356Z,98914.53
2022-08-16T11:29:56.701Z,98864.91
2022-08-16T11:32:31.474Z,98856.91
2022-08-16T11:35:15.050Z,98843.63
2022-08-16T11:38:47.285Z,98831.59
2022-08-16T11:40:52.808Z,98869.44
2022-08-16T11:43:24.939Z,98905.72
2022-08-16T11:45:55.317Z,98930.09
2022-08-16T11:48:29.038Z,98979.28
2022-08-16T11:50:56.457Z,98961.00
2022-08-16T11:53:24.362Z,98947.56
2022-08-16T11:55:54.958Z,98975.44
2022-08-16T11:58:25.428Z,98972.41
2022-08-16T12:00:55.007Z,98979.53
2022-08-16T12:03:34.658Z,98960.00
2022-08-16T12:06:30.395Z,98971.78
2022-08-16T12:09:00.981Z,98961.19
2022-08-16T12:11:31.398Z,98915.28
2022-08-16T12:14:01.114Z,98850.16
2022-08-16T12:16:31.264Z,98795.13
2022-08-16T12:19:06.199Z,98791.81
2022-08-16T12:21:58.420Z,98793.66
2022-08-16T12:24:24.396Z,98782.50
2022-08-16T12:26:52.642Z,98781.06
2022-08-16T12:29:21.124Z,98760.72
2022-08-16T12:32:01.731Z,98734.50
2022-08-16T12:34:38.593Z,98703.88
2022-08-16T12:37:17.737Z,98707.44
2022-08-16T12:39:50.817Z,98695.34
2022-08-16T12:42:20.556Z,98693.25
2022-08-16T12:44:48.605Z,98664.16
2022-08-16T12:47:37.204Z,98684.06
2022-08-16T12:50:10.593Z,98710.09
2022-08-16T12:52:48.938Z,98701.41
2022-08-16T12:55:20.566Z,98689.97
2022-08-16T12:57:58.570Z,98683.81
2022-08-16T13:00:33.327Z,98714.06
2022-08-16T13:03:03.036Z,98770.88
2022-08-16T13:05:36.706Z,98799.88
2022-08-16T13:08:03.883Z,98783.69
2022-08-16T13:10:36.973Z,98808.59
2022-08-16T13:13:06.517Z,98833.56
2022-08-16T13:15:36.247Z,98841.06
2022-08-16T13:18:24.303Z,98853.69
2022-08-16T13:20:54.489Z,98866.38
2022-08-16T13:23:23.393Z,98906.59
2022-08-16T13:25:51.888Z,98917.06
2022-08-16T13:28:21.952Z,98904.97
2022-08-16T13:30:52.172Z,98913.47
2022-08-16T13:33:30.558Z,98921.28
2022-08-16T13:36:00.383Z,98912.38
2022-08-16T13:38:31.469Z,98873.06
2022-08-16T13:41:05.294Z,98866.38
2022-08-16T13:43:35.858Z,98854.56
2022-08-16T13:46:04.365Z,98859.53
2022-08-16T13:48:43.111Z,98853.44
2022-08-16T13:51:18.011Z,98856.13
2022-08-16T13:53:59.395Z,98850.03
2022-08-16T13:56:37.061Z,98872.53
2022-08-16T13:59:19.198Z,98936.91
2022-08-16T14:01:55.422Z,98959.19
2022-08-16T14:04:30.161Z,98977.06
2022-08-16T14:06:59.966Z,99002.53
2022-08-16T14:09:29.064Z,99018.31
2022-08-16T14:12:00.678Z,99007.25
2022-08-16T14:14:29.990Z,99006.75
2022-08-16T14:17:00.015Z,99002.69
2022-08-16T14:19:29.668Z,98982.00
2022-08-16T14:22:14.639Z,98987.38
2022-08-16T14:24:48.710Z,98993.25
2022-08-16T14:27:18.061Z,99018.81
2022-08-16T14:29:49.244Z,99017.63
2022-08-16T14:32:32.667Z,99007.69
2022-08-16T14:35:07.472Z,99003.13
2022-08-16T14:37:35.318Z,99018.94
2022-08-16T14:40:03.379Z,99020.97
2022-08-16T14:42:30.966Z,99020.97
2022-08-16T14:45:00.494Z,99041.16
2022-08-16T14:47:34.264Z,99033.78
2022-08-16T14:50:02.783Z,99043.16
2022-08-16T14:52:53.950Z,99060.94
2022-08-16T14:55:17.652Z,99086.25
2022-08-16T14:57:47.531Z,99094.25
2022-08-16T15:00:15.722Z,99127.22
2022-08-16T15:02:49.858Z,99152.53
2022-08-16T15:05:23.139Z,99194.78
2022-08-16T15:07:51.574Z,99214.47
2022-08-16T15:10:23.863Z,99236.38
2022-08-16T15:12:56.322Z,99257.78
2022-08-16T15:15:27.951Z,99271.63
2022-08-16T15:17:56.647Z,99282.88
2022-08-16T15:20:30.007Z,99282.25
2022-08-16T15:22:59.828Z,99282.59
2022-08-16T15:25:34.198Z,99269.81
2022-08-16T15:28:04.829Z,99276.47
2022-08-16T15:30:57.748Z,99278.97
2022-08-16T15:33:25.448Z,99294.00
2022-08-16T15:35:54.144Z,99341.44
2022-08-16T15:38:56.865Z,99355.34
2022-08-16T15:41:43.162Z,99396.56
2022-08-16T15:44:14.219Z,99437.50
2022-08-16T15:46:55.492Z,99457.06
2022-08-16T15:49:38.117Z,99482.16
2022-08-16T15:52:12.452Z,99513.00
2022-08-16T15:54:53.180Z,99533.84
2022-08-16T15:57:22.952Z,99556.03
2022-08-16T15:59:52.485Z,99580.75
2022-08-16T16:02:29.164Z,99601.97
2022-08-16T16:05:04.575Z,99619.75
2022-08-16T16:07:33.482Z,99645.31
2022-08-16T16:10:03.882Z,99658.16
2022-08-16T16:12:51.715Z,99660.22
2022-08-16T16:15:22.668Z,99672.38
2022-08-16T16:17:51.062Z,99684.59
2022-08-16T16:20:27.570Z,99691.97
2022-08-16T16:23:04.251Z,99702.09
2022-08-16T16:25:37.261Z,99711.63
2022-08-16T16:28:04.109Z,99724.22
2022-08-16T16:30:44.791Z,99732.03
2022-08-16T16:33:20.859Z,99745.03
2022-08-16T16:35:55.458Z,99753.50
2022-08-16T16:38:30.638Z,99768.47
2022-08-16T16:41:08.958Z,99780.00
2022-08-16T16:43:42.055Z,99795.31
2022-08-16T16:46:38.979Z,99808.44
2022-08-16T16:48:59.992Z,99817.06
2022-08-16T16:51:28.009Z,99829.84
2022-08-16T16:53:57.015Z,99839.31
2022-08-16T16:56:30.192Z,99853.66
2022-08-16T16:59:06.083Z,99870.47
2022-08-16T17:01:56.940Z,99883.00
2022-08-16T17:04:31.984Z,99886.63
2022-08-16T17:07:03.582Z,99911.94
2022-08-16T17:09:30.715Z,99913.25
2022-08-16T17:11:58.625Z,99931.50
2022-08-16T17:14:33.813Z,99945.31
2022-08-16T17:17:08.751Z,99970.69
2022-08-16T17:19:41.188Z,99972.41
2022-08-16T17:22:20.594Z,99980.06
2022-08-16T17:24:52.299Z,99987.47
2022-08-16T17:27:33.104Z,100001.25
2022-08-16T17:30:16.293Z,100032.22
2022-08-16T17:32:54.645Z,100032.16
2022-08-16T17:35:40.654Z,100041.91
2022-08-16T17:38:09.403Z,100055.91
2022-08-16T17:40:54.993Z,100069.75
2022-08-16T17:43:34.078Z,100080.38
2022-08-16T17:46:04.317Z,100093.72
2022-08-16T17:48:32.158Z,100095.53
2022-08-16T17:50:59.906Z,100109.44
2022-08-16T17:53:27.203Z,100119.19
2022-08-16T17:55:54.690Z,100119.38
2022-08-16T17:58:24.138Z,100139.09
2022-08-16T18:00:54.220Z,100142.50
2022-08-16T18:04:02.597Z,100150.03
2022-08-16T18:06:13.926Z,100168.38
2022-08-16T18:08:45.114Z,100172.28
2022-08-16T18:11:25.625Z,100191.75
2022-08-16T18:13:54.249Z,100180.88
2022-08-16T18:16:21.029Z,100192.84
2022-08-16T18:18:47.849Z,100187.56
2022-08-16T18:21:34.274Z,100197.56
2022-08-16T18:24:01.281Z,100194.56
2022-08-16T18:26:28.600Z,100195.41
2022-08-16T18:28:55.406Z,100203.44
2022-08-16T18:31:22.356Z,100202.69
2022-08-16T18:33:49.520Z,100198.31
2022-08-16T18:36:21.903Z,100207.53
2022-08-16T18:38:50.038Z,100217.53
2022-08-16T18:41:17.929Z,100216.44
2022-08-16T18:44:24.216Z,100230.97
2022-08-16T18:46:31.673Z,100219.25
2022-08-16T18:48:58.733Z,100218.13
2022-08-16T18:51:25.981Z,100217.28
2022-08-16T18:53:53.477Z,100220.22
2022-08-16T18:56:20.601Z,100216.75
2022-08-16T18:58:47.435Z,100208.03
2022-08-16T19:01:14.508Z,100208.03
2022-08-16T19:03:41.411Z,100204.63
2022-08-16T19:06:13.839Z,100202.75
2022-08-16T19:08:43.524Z,100190.47
2022-08-16T19:11:15.380Z,100182.81
2022-08-16T19:13:44.271Z,100173.66
2022-08-16T19:16:13.200Z,100179.06
2022-08-16T19:18:40.121Z,100183.91
2022-08-16T19:21:08.903Z,100176.22
2022-08-16T19:23:37.751Z,100178.63
2022-08-16T19:26:23.411Z,100157.06
2022-08-16T19:28:59.891Z,100134.56
2022-08-16T19:31:33.092Z,100123.22
2022-08-16T19:34:01.412Z,100116.22
2022-08-16T19:36:34.136Z,100100.31
2022-08-16T19:39:14.222Z,100093.28
2022-08-16T19:41:44.490Z,100083.13
2022-08-16T19:44:11.634Z,100070.19
2022-08-16T19:46:41.780Z,100069.34
2022-08-16T19:49:08.668Z,100040.97
2022-08-16T19:51:35.677Z,100034.91
2022-08-16T19:54:04.908Z,100023.53
2022-08-16T19:56:31.743Z,100012.25
2022-08-16T20:01:46.363Z,99961.03
2022-08-16T20:04:13.572Z,99971.03
2022-08-16T20:06:41.913Z,99952.41
2022-08-16T20:09:10.541Z,99940.25
2022-08-16T20:11:41.530Z,99927.75
2022-08-16T20:14:08.471Z,99922.44
2022-08-16T20:16:35.889Z,99910.16
2022-08-16T20:19:04.581Z,99901.44
2022-08-16T20:21:34.499Z,99903.22
2022-08-16T20:24:31.966Z,99893.00
2022-08-16T20:26:48.577Z,99887.09
2022-08-16T20:29:15.577Z,99879.44
2022-08-16T20:31:42.517Z,99866.50
2022-08-16T20:34:09.359Z,99857.78
2022-08-16T20:36:36.318Z,99861.84
2022-08-16T20:39:04.910Z,99846.41
2022-08-16T20:41:31.866Z,99845.81
2022-08-16T20:43:58.758Z,99835.22
2022-08-16T20:46:26.740Z,99830.09
2022-08-16T20:48:53.554Z,99823.25
2022-08-16T20:51:20.373Z,99805.84
2022-08-16T20:53:47.174Z,99805.09
2022-08-16T20:56:14.169Z,99806.19
2022-08-16T20:58:41.023Z,99798.44
2022-08-16T21:01:08.191Z,99799.63
2022-08-16T21:03:35.634Z,99803.31
2022-08-16T21:06:02.908Z,99796.50
2022-08-16T21:08:53.512Z,99801.13
2022-08-16T21:11:17.867Z,99793.59
2022-08-16T21:13:44.702Z,99790.19
2022-08-16T21:16:11.773Z,99788.78
2022-08-16T21:18:38.816Z,99792.41
2022-08-16T21:21:05.661Z,99793.41
2022-08-16T21:23:32.532Z,99790.25
2022-08-16T21:25:59.929Z,99791.34
2022-08-16T21:28:39.325Z,99794.19
2022-08-16T21:31:09.591Z,99800.72
2022-08-16T21:33:36.528Z,99793.66
2022-08-16T21:36:03.605Z,99795.63
2022-08-16T21:38:31.098Z,99792.22
2022-08-16T21:41:03.430Z,99800.31
2022-08-16T21:43:32.048Z,99791.69
2022-08-16T21:46:03.887Z,99795.34
2022-08-16T21:48:35.278Z,99792.88
2022-08-16T21:51:21.193Z,99794.56
2022-08-16T21:53:48.209Z,99786.22
2022-08-16T21:56:17.191Z,99782.81
2022-08-16T21:58:46.394Z,99784.59
2022-08-16T22:01:15.288Z,99786.53
2022-08-16T22:03:42.734Z,99783.06
2022-08-16T22:06:13.167Z,99781.44
2022-08-16T22:08:51.140Z,99784.31
2022-08-16T22:11:23.941Z,99783.63
2022-08-16T22:13:57.847Z,99779.38
2022-08-16T22:16:32.274Z,99783.03
2022-08-16T22:19:00.068Z,99777.97
2022-08-16T22:21:27.167Z,99778.81
2022-08-16T22:23:57.039Z,99784.25
2022-08-16T22:26:31.709Z,99782.56
2022-08-16T22:29:08.630Z,99780.84
2022-08-16T22:31:37.316Z,99781.94
2022-08-16T22:34:04.492Z,99775.78
2022-08-16T22:36:33.176Z,99774.16
2022-08-16T22:39:03.557Z,99785.84
2022-08-16T22:41:32.717Z,99781.81
2022-08-16T22:44:01.358Z,99783.50
2022-08-16T22:46:28.599Z,99784.59
2022-08-16T22:48:55.502Z,99784.59
2022-08-16T22:51:26.090Z,99796.28
2022-08-16T22:53:54.028Z,99795.59
2022-08-16T22:56:22.464Z,99783.22
2022-08-16T22:58:50.138Z,99784.41
2022-08-16T23:01:19.495Z,99789.75
2022-08-16T23:03:46.476Z,99778.50
2022-08-16T23:06:14.566Z,99791.63
2022-08-16T23:08:43.066Z,99780.91
2022-08-16T23:11:19.530Z,99793.31
2022-08-16T23:13:52.408Z,99793.50
2022-08-16T23:16:33.432Z,99795.38
2022-08-16T23:19:10.837Z,99795.25
2022-08-16T23:21:40.842Z,99794.75
2022-08-16T23:24:08.652Z,99794.88
2022-08-16T23:26:48.150Z,99799.41
2022-08-16T23:29:23.157Z,99801.25
2022-08-16T23:31:58.624Z,99797.66
2022-08-16T23:34:28.172Z,99791.16
2022-08-16T23:36:55.591Z,99796.66
2022-08-16T23:39:23.613Z,99788.94
2022-08-16T23:41:50.892Z,99793.44
2022-08-16T23:44:57.362Z,99792.72
2022-08-16T23:47:06.274Z,99791.25
2022-08-16T23:50:00.199Z,99787.91
2022-08-16T23:52:53.083Z,99787.22
2022-08-16T23:55:08.520Z,99792.50
2022-08-16T23:57:35.351Z,99797.75
